createdAt,value
2017-05-15T00:01:16.168Z,13.52
2017-05-15T00:03:44.519Z,13.50
2017-05-15T00:06:13.885Z,13.50
2017-05-15T00:08:42.271Z,13.48
2017-05-15T00:11:10.768Z,13.44
2017-05-15T00:13:38.448Z,13.40
2017-05-15T00:16:07.861Z,13.37
2017-05-15T00:18:35.609Z,13.35
2017-05-15T00:21:03.423Z,13.31
2017-05-15T00:23:31.589Z,13.29
2017-05-15T00:26:00.437Z,13.27
2017-05-15T00:28:33.079Z,13.26
2017-05-15T00:31:23.673Z,13.23
2017-05-15T00:34:00.011Z,13.19
2017-05-15T00:36:28.845Z,13.15
2017-05-15T00:38:56.616Z,13.13
2017-05-15T00:41:24.483Z,13.10
2017-05-15T00:43:52.060Z,13.07
2017-05-15T00:46:20.084Z,13.06
2017-05-15T01:06:30.742Z,12.93
2017-05-15T01:17:55.132Z,12.97
2017-05-15T01:26:26.747Z,13.00
2017-05-15T01:49:23.471Z,12.93
2017-05-15T01:51:52.633Z,12.93
2017-05-15T02:00:09.602Z,12.89
2017-05-15T02:02:37.991Z,12.90
2017-05-15T02:05:06.963Z,12.90
2017-05-15T02:07:35.271Z,12.90
2017-05-15T02:10:03.572Z,12.91
2017-05-15T02:12:31.972Z,12.93
2017-05-15T02:14:59.867Z,12.94
2017-05-15T02:17:28.647Z,12.94
2017-05-15T02:19:56.217Z,12.94
2017-05-15T02:22:24.566Z,12.94
2017-05-15T02:24:53.886Z,12.95
2017-05-15T02:27:23.115Z,12.96
2017-05-15T02:29:51.292Z,12.98
2017-05-15T02:32:19.089Z,13.00
2017-05-15T02:34:46.780Z,13.03
2017-05-15T02:37:14.491Z,13.04
2017-05-15T02:39:42.269Z,13.08
2017-05-15T02:42:10.012Z,13.11
2017-05-15T02:44:37.616Z,13.14
2017-05-15T02:47:05.416Z,13.16
2017-05-15T02:49:33.178Z,13.17
2017-05-15T02:52:00.943Z,13.18
2017-05-15T02:54:29.362Z,13.19
2017-05-15T02:56:56.940Z,13.18
2017-05-15T02:59:24.925Z,13.16
2017-05-15T03:01:52.587Z,13.13
2017-05-15T03:04:20.439Z,13.11
2017-05-15T03:06:51.332Z,13.09
2017-05-15T03:09:21.374Z,13.06
2017-05-15T03:11:50.104Z,13.01
2017-05-15T03:14:18.300Z,12.98
2017-05-15T03:16:46.249Z,12.94
2017-05-15T03:19:14.531Z,12.90
2017-05-15T03:21:53.742Z,12.85
2017-05-15T03:24:22.783Z,12.82
2017-05-15T03:27:21.096Z,12.79
2017-05-15T03:29:56.108Z,12.74
2017-05-15T03:32:26.918Z,12.70
2017-05-15T03:34:57.631Z,12.67
2017-05-15T03:37:25.594Z,12.64
2017-05-15T03:39:57.847Z,12.61
2017-05-15T03:42:33.607Z,12.58
2017-05-15T03:48:34.164Z,12.47
2017-05-15T03:59:45.839Z,12.28
2017-05-15T04:02:18.224Z,12.22
2017-05-15T04:04:50.098Z,12.22
2017-05-15T05:42:21.089Z,12.67
2017-05-15T05:47:23.496Z,12.78
2017-05-15T05:49:54.814Z,12.84
2017-05-15T05:52:22.927Z,12.88
2017-05-15T05:54:53.042Z,12.92
2017-05-15T05:57:37.561Z,12.96
2017-05-15T06:03:21.248Z,13.07
2017-05-15T06:09:09.415Z,13.24
2017-05-15T06:17:54.131Z,13.49
2017-05-15T06:20:23.104Z,13.54
2017-05-15T06:23:22.576Z,13.59
2017-05-15T06:26:07.942Z,13.64
2017-05-15T06:28:39.733Z,13.69
2017-05-15T06:31:09.434Z,13.74
2017-05-15T06:33:37.934Z,13.79
2017-05-15T06:36:05.756Z,13.83
2017-05-15T06:38:51.217Z,13.87
2017-05-15T06:41:32.904Z,13.92
2017-05-15T06:44:00.954Z,13.96
2017-05-15T06:46:28.918Z,14.01
2017-05-15T06:48:56.818Z,14.04
2017-05-15T06:51:24.726Z,14.09
2017-05-15T06:53:54.314Z,14.13
2017-05-15T06:56:22.790Z,14.18
2017-05-15T06:58:50.682Z,14.23
2017-05-15T07:01:18.483Z,14.29
2017-05-15T07:03:46.316Z,14.34
2017-05-15T07:06:14.555Z,14.38
2017-05-15T07:08:42.825Z,14.44
2017-05-15T07:11:10.610Z,14.50
2017-05-15T07:13:38.384Z,14.55
2017-05-15T07:16:06.026Z,14.61
2017-05-15T07:18:33.979Z,14.66
2017-05-15T07:21:01.619Z,14.72
2017-05-15T07:23:30.015Z,14.79
2017-05-15T07:25:57.494Z,14.85
2017-05-15T07:28:25.023Z,14.92
2017-05-15T07:30:52.494Z,14.99
2017-05-15T07:33:19.939Z,15.06
2017-05-15T07:35:47.467Z,15.12
2017-05-15T07:38:15.303Z,15.19
2017-05-15T07:40:42.814Z,15.26
2017-05-15T07:43:10.399Z,15.33
2017-05-15T07:45:37.842Z,15.41
2017-05-15T07:48:11.503Z,15.48
2017-05-15T07:50:39.163Z,15.57
2017-05-15T07:53:06.823Z,15.65
2017-05-15T07:55:34.403Z,15.74
2017-05-15T07:58:02.171Z,15.81
2017-05-15T08:00:30.350Z,15.88
2017-05-15T08:02:57.796Z,15.94
2017-05-15T08:05:25.386Z,16.03
2017-05-15T08:07:52.866Z,16.14
2017-05-15T08:10:20.350Z,16.24
2017-05-15T08:12:47.914Z,16.32
2017-05-15T08:15:15.471Z,16.41
2017-05-15T08:17:42.929Z,16.49
2017-05-15T08:20:10.423Z,16.58
2017-05-15T08:22:41.041Z,16.67
2017-05-15T08:25:08.545Z,16.75
2017-05-15T08:27:36.045Z,16.83
2017-05-15T08:30:03.507Z,16.90
2017-05-15T08:32:30.983Z,16.97
2017-05-15T08:34:58.443Z,17.02
2017-05-15T08:37:25.947Z,17.04
2017-05-15T08:39:53.395Z,17.09
2017-05-15T08:42:20.846Z,17.16
2017-05-15T08:44:48.298Z,17.25
2017-05-15T08:47:15.765Z,17.40
2017-05-15T08:49:43.197Z,17.51
2017-05-15T08:52:10.654Z,17.68
2017-05-15T08:54:38.109Z,17.91
2017-05-15T08:57:05.575Z,18.16
2017-05-15T08:59:33.034Z,18.43
2017-05-15T09:02:00.471Z,18.70
2017-05-15T09:04:27.901Z,18.95
2017-05-15T09:06:55.366Z,19.12
2017-05-15T09:09:22.807Z,19.21
2017-05-15T09:11:50.262Z,19.37
2017-05-15T09:14:17.693Z,19.59
2017-05-15T09:16:45.131Z,19.85
2017-05-15T09:19:12.574Z,20.15
2017-05-15T09:21:40.035Z,20.46
2017-05-15T09:24:07.465Z,20.69
2017-05-15T09:26:34.901Z,20.78
2017-05-15T09:29:02.341Z,20.87
2017-05-15T09:31:29.779Z,20.92
2017-05-15T09:33:57.209Z,21.00
2017-05-15T09:36:24.642Z,21.18
2017-05-15T09:38:52.099Z,21.47
2017-05-15T09:41:19.527Z,21.75
2017-05-15T09:43:46.957Z,21.97
2017-05-15T09:46:14.379Z,22.14
2017-05-15T09:48:41.818Z,22.28
2017-05-15T09:51:09.241Z,22.40
2017-05-15T09:53:36.666Z,22.53
2017-05-15T09:56:04.102Z,22.61
2017-05-15T09:58:44.230Z,22.67
2017-05-15T10:01:11.654Z,22.80
2017-05-15T10:03:39.091Z,22.88
2017-05-15T10:06:06.518Z,23.02
2017-05-15T10:08:33.943Z,23.18
2017-05-15T10:11:01.374Z,23.37
2017-05-15T10:13:28.803Z,23.54
2017-05-15T10:15:56.241Z,23.62
2017-05-15T10:18:23.661Z,23.51
2017-05-15T10:20:51.121Z,23.30
2017-05-15T10:23:18.550Z,23.13
2017-05-15T10:25:45.979Z,22.96
2017-05-15T10:28:13.403Z,22.66
2017-05-15T10:30:40.843Z,22.46
2017-05-15T10:33:08.285Z,22.22
2017-05-15T10:35:35.723Z,22.01
2017-05-15T10:38:03.149Z,21.80
2017-05-15T10:40:30.581Z,21.60
2017-05-15T10:42:58.007Z,21.34
2017-05-15T10:45:25.455Z,21.08
2017-05-15T10:47:52.882Z,20.86
2017-05-15T10:50:20.311Z,20.71
2017-05-15T10:52:47.741Z,20.60
2017-05-15T10:55:15.178Z,20.51
2017-05-15T10:57:42.630Z,20.42
2017-05-15T11:00:10.058Z,20.35
2017-05-15T11:02:37.503Z,20.29
2017-05-15T11:05:04.946Z,20.21
2017-05-15T11:07:32.378Z,20.21
2017-05-15T11:10:07.370Z,20.22
2017-05-15T11:12:34.794Z,20.21
2017-05-15T11:15:02.225Z,20.26
2017-05-15T11:17:29.853Z,20.41
2017-05-15T11:19:57.509Z,20.58
2017-05-15T11:22:24.949Z,20.82
2017-05-15T11:24:52.392Z,21.11
2017-05-15T11:27:19.839Z,21.39
2017-05-15T11:29:47.270Z,21.68
2017-05-15T11:32:33.755Z,21.96
2017-05-15T11:35:01.287Z,22.26
2017-05-15T11:37:28.754Z,22.46
2017-05-15T11:39:56.245Z,22.61
2017-05-15T11:42:23.733Z,22.70
2017-05-15T11:50:10.775Z,22.95
2017-05-15T11:52:38.223Z,23.08
2017-05-15T11:55:05.809Z,23.26
2017-05-15T11:57:33.512Z,23.33
2017-05-15T12:00:01.074Z,23.44
2017-05-15T12:02:28.550Z,23.46
2017-05-15T12:04:56.147Z,23.44
2017-05-15T12:07:23.674Z,23.52
2017-05-15T12:09:51.142Z,23.67
2017-05-15T12:12:18.728Z,23.78
2017-05-15T12:14:46.488Z,23.90
2017-05-15T12:17:14.812Z,24.01
2017-05-15T12:19:42.274Z,23.95
2017-05-15T12:22:23.138Z,23.95
2017-05-15T12:24:50.566Z,24.00
2017-05-15T12:27:18.099Z,24.09
2017-05-15T12:29:45.679Z,24.17
2017-05-15T12:32:13.322Z,24.22
2017-05-15T12:34:40.887Z,24.29
2017-05-15T12:37:08.310Z,24.28
2017-05-15T12:39:35.880Z,24.18
2017-05-15T12:42:03.606Z,24.02
2017-05-15T12:44:31.062Z,23.89
2017-05-15T12:46:58.551Z,23.73
2017-05-15T12:49:26.003Z,23.74
2017-05-15T12:51:53.558Z,23.84
2017-05-15T12:54:21.026Z,23.90
2017-05-15T12:56:48.473Z,23.88
2017-05-15T12:59:15.897Z,23.80
2017-05-15T13:01:43.363Z,23.84
2017-05-15T13:04:10.785Z,23.93
2017-05-15T13:06:38.220Z,24.05
2017-05-15T13:09:05.649Z,24.14
2017-05-15T13:11:33.122Z,24.25
2017-05-15T13:14:00.552Z,24.29
2017-05-15T13:16:44.698Z,24.24
2017-05-15T13:19:12.119Z,24.11
2017-05-15T13:21:39.552Z,23.96
2017-05-15T13:27:28.033Z,23.64
2017-05-15T13:30:10.631Z,23.61
2017-05-15T13:32:38.519Z,23.55
2017-05-15T13:37:48.553Z,23.37
2017-05-15T13:40:32.546Z,23.31
2017-05-15T13:43:00.563Z,23.22
2017-05-15T13:45:28.410Z,23.16
2017-05-15T13:47:56.187Z,23.12
2017-05-15T13:53:00.189Z,22.99
2017-05-15T13:55:27.835Z,22.93
2017-05-15T13:57:55.850Z,23.01
2017-05-15T14:00:23.321Z,23.12
2017-05-15T14:03:03.472Z,23.27
2017-05-15T14:05:31.277Z,23.37
2017-05-15T14:07:58.874Z,23.43
2017-05-15T14:10:26.748Z,23.52
2017-05-15T14:12:54.629Z,23.54
2017-05-15T14:15:22.228Z,23.54
2017-05-15T14:17:49.969Z,23.60
2017-05-15T14:20:33.563Z,23.69
2017-05-15T14:23:14.415Z,23.77
2017-05-15T14:25:54.482Z,23.85
2017-05-15T14:28:21.925Z,23.91
2017-05-15T14:30:49.377Z,23.99
2017-05-15T14:33:16.832Z,24.03
2017-05-15T14:35:44.266Z,24.09
2017-05-15T14:38:11.686Z,24.07
2017-05-15T14:40:39.124Z,24.09
2017-05-15T14:43:06.562Z,24.15
2017-05-15T14:45:33.994Z,24.21
2017-05-15T14:48:01.427Z,24.18
2017-05-15T14:50:28.858Z,24.17
2017-05-15T14:52:56.298Z,24.10
2017-05-15T14:55:23.771Z,24.08
2017-05-15T14:57:51.209Z,24.01
2017-05-15T15:00:18.663Z,23.92
2017-05-15T15:02:46.102Z,23.85
2017-05-15T15:05:13.578Z,23.72
2017-05-15T15:07:41.012Z,23.64
2017-05-15T15:10:31.416Z,23.58
2017-05-15T15:12:58.886Z,23.56
2017-05-15T15:15:38.919Z,23.60
2017-05-15T15:18:06.377Z,23.65
2017-05-15T15:20:33.970Z,23.67
2017-05-15T15:23:01.424Z,23.71
2017-05-15T15:25:28.878Z,23.74
2017-05-15T15:27:56.396Z,23.70
2017-05-15T15:30:23.877Z,23.70
2017-05-15T15:32:51.444Z,23.74
2017-05-15T15:35:18.910Z,23.76
2017-05-15T15:37:46.459Z,23.77
2017-05-15T15:40:13.970Z,23.79
2017-05-15T15:42:41.496Z,23.80
2017-05-15T15:45:08.958Z,23.84
2017-05-15T15:47:36.458Z,23.84
2017-05-15T15:50:03.973Z,23.78
2017-05-15T15:52:50.734Z,23.83
2017-05-15T15:55:18.203Z,23.83
2017-05-15T15:57:45.653Z,23.82
2017-05-15T16:00:33.840Z,23.85
2017-05-15T16:03:01.274Z,23.88
2017-05-15T16:05:41.427Z,23.86
2017-05-15T16:08:08.865Z,23.81
2017-05-15T16:10:36.291Z,23.84
2017-05-15T16:15:56.840Z,23.86
2017-05-15T16:18:24.346Z,23.86
2017-05-15T16:20:51.747Z,23.86
2017-05-15T16:23:19.286Z,23.83
2017-05-15T16:25:46.762Z,23.82
2017-05-15T16:28:14.186Z,23.77
2017-05-15T16:30:41.630Z,23.71
2017-05-15T16:33:09.215Z,23.66
2017-05-15T16:35:36.670Z,23.66
2017-05-15T16:38:04.190Z,23.61
2017-05-15T16:40:31.701Z,23.56
2017-05-15T16:43:00.695Z,23.47
2017-05-15T16:45:28.198Z,23.36
2017-05-15T16:47:55.701Z,23.26
2017-05-15T16:50:23.498Z,23.16
2017-05-15T16:53:03.418Z,23.08
2017-05-15T16:55:30.857Z,22.97
2017-05-15T16:57:58.292Z,22.89
2017-05-15T17:00:25.734Z,22.85
2017-05-15T17:02:53.168Z,22.81
2017-05-15T17:05:20.607Z,22.73
2017-05-15T17:07:48.042Z,22.68
2017-05-15T17:10:15.486Z,22.65
2017-05-15T17:12:42.911Z,22.62
2017-05-15T17:15:10.546Z,22.58
2017-05-15T17:17:37.998Z,22.54
2017-05-15T17:20:05.437Z,22.50
2017-05-15T17:22:32.863Z,22.44
2017-05-15T17:25:00.310Z,22.36
2017-05-15T17:27:27.746Z,22.32
2017-05-15T17:29:55.188Z,22.26
2017-05-15T17:32:22.614Z,22.17
2017-05-15T17:34:50.046Z,22.08
2017-05-15T17:37:17.488Z,21.99
2017-05-15T17:39:44.921Z,21.91
2017-05-15T17:42:12.363Z,21.81
2017-05-15T17:44:39.797Z,21.72
2017-05-15T17:47:07.260Z,21.63
2017-05-15T17:49:34.714Z,21.52
2017-05-15T17:52:27.744Z,21.38
2017-05-15T17:54:58.390Z,21.25
2017-05-15T17:57:25.826Z,21.15
2017-05-15T17:59:53.261Z,21.05
2017-05-15T18:02:20.695Z,20.95
2017-05-15T18:04:48.126Z,20.86
2017-05-15T18:07:17.501Z,20.78
2017-05-15T18:09:44.931Z,20.70
2017-05-15T18:12:12.350Z,20.61
2017-05-15T18:14:39.784Z,20.51
2017-05-15T18:17:07.217Z,20.43
2017-05-15T18:19:35.586Z,20.39
2017-05-15T18:22:03.014Z,20.34
2017-05-15T18:24:30.850Z,20.27
2017-05-15T18:26:58.273Z,20.20
2017-05-15T18:29:27.683Z,20.13
2017-05-15T18:32:00.865Z,20.08
2017-05-15T18:34:28.290Z,20.01
2017-05-15T18:36:55.877Z,19.95
2017-05-15T18:39:23.341Z,19.87
2017-05-15T18:41:51.230Z,19.79
2017-05-15T18:47:17.514Z,19.63
2017-05-15T18:49:44.984Z,19.55
2017-05-15T18:52:12.410Z,19.48
2017-05-15T18:54:39.866Z,19.40
2017-05-15T18:57:07.326Z,19.30
2017-05-15T18:59:34.755Z,19.21
2017-05-15T19:02:02.274Z,19.11
2017-05-15T19:04:29.722Z,19.03
2017-05-15T19:07:03.334Z,18.93
2017-05-15T19:09:30.794Z,18.82
2017-05-15T19:11:58.229Z,18.72
2017-05-15T19:14:25.734Z,18.63
2017-05-15T19:16:53.177Z,18.52
2017-05-15T19:19:20.631Z,18.43
2017-05-15T19:21:48.060Z,18.32
2017-05-15T19:24:15.509Z,18.22
2017-05-15T19:26:42.960Z,18.12
2017-05-15T19:29:10.454Z,18.03
2017-05-15T19:31:37.909Z,17.93
2017-05-15T19:34:05.358Z,17.84
2017-05-15T19:36:32.807Z,17.76
2017-05-15T19:39:00.323Z,17.67
2017-05-15T19:41:27.821Z,17.57
2017-05-15T19:43:55.268Z,17.48
2017-05-15T19:46:23.287Z,17.40
2017-05-15T19:48:51.058Z,17.30
2017-05-15T19:51:18.566Z,17.23
2017-05-15T19:53:46.117Z,17.15
2017-05-15T19:56:13.573Z,17.07
2017-05-15T19:58:41.046Z,17.00
2017-05-15T20:01:09.571Z,16.92
2017-05-15T20:03:37.620Z,16.86
2017-05-15T20:06:05.455Z,16.79
2017-05-15T20:08:33.156Z,16.72
2017-05-15T20:11:00.791Z,16.66
2017-05-15T20:13:28.683Z,16.60
2017-05-15T20:15:56.759Z,16.54
2017-05-15T20:18:24.475Z,16.47
2017-05-15T20:20:51.916Z,16.40
2017-05-15T20:23:20.360Z,16.32
2017-05-15T20:25:48.179Z,16.25
2017-05-15T20:28:16.264Z,16.19
2017-05-15T20:30:44.279Z,16.12
2017-05-15T20:33:13.063Z,16.06
2017-05-15T20:35:41.081Z,16.01
2017-05-15T20:38:10.042Z,15.95
2017-05-15T20:40:39.959Z,15.88
2017-05-15T20:43:10.818Z,15.82
2017-05-15T20:45:39.615Z,15.75
2017-05-15T20:48:07.186Z,15.68
2017-05-15T20:50:35.751Z,15.62
2017-05-15T20:53:03.422Z,15.56
2017-05-15T20:55:30.895Z,15.51
2017-05-15T20:57:58.419Z,15.46
2017-05-15T21:00:26.228Z,15.42
2017-05-15T21:02:53.839Z,15.36
2017-05-15T21:05:21.458Z,15.32
2017-05-15T21:07:48.980Z,15.26
2017-05-15T21:10:16.742Z,15.22
2017-05-15T21:12:44.322Z,15.17
2017-05-15T21:15:13.030Z,15.13
2017-05-15T21:17:40.604Z,15.07
2017-05-15T21:20:08.106Z,15.01
2017-05-15T21:22:35.618Z,14.97
2017-05-15T21:25:03.157Z,14.92
2017-05-15T21:27:30.661Z,14.86
2017-05-15T21:29:58.175Z,14.82
2017-05-15T21:32:25.903Z,14.79
2017-05-15T21:34:53.923Z,14.75
2017-05-15T21:37:21.548Z,14.70
2017-05-15T21:39:49.102Z,14.64
2017-05-15T21:42:16.634Z,14.60
2017-05-15T21:44:44.152Z,14.55
2017-05-15T21:47:12.407Z,14.51
2017-05-15T21:49:40.468Z,14.45
2017-05-15T21:52:09.451Z,14.40
2017-05-15T21:54:38.128Z,14.35
2017-05-15T21:57:05.863Z,14.31
2017-05-15T21:59:34.334Z,14.27
2017-05-15T22:02:03.047Z,14.22
2017-05-15T22:04:31.837Z,14.18
2017-05-15T22:06:59.626Z,14.13
2017-05-15T22:09:41.166Z,14.10
2017-05-15T22:12:09.801Z,14.05
2017-05-15T22:14:38.278Z,14.01
2017-05-15T22:17:06.962Z,13.97
2017-05-15T22:19:36.875Z,13.91
2017-05-15T22:22:05.003Z,13.86
2017-05-15T22:24:34.159Z,13.85
2017-05-15T22:27:02.948Z,13.87
2017-05-15T22:29:30.635Z,13.86
2017-05-15T22:31:59.492Z,13.89
2017-05-15T22:34:27.160Z,13.90
2017-05-15T22:36:55.788Z,13.91
2017-05-15T22:39:23.379Z,13.92
2017-05-15T22:41:51.154Z,13.91
2017-05-15T22:44:18.964Z,13.89
2017-05-15T22:46:46.665Z,13.88
2017-05-15T22:49:17.225Z,13.86
2017-05-15T22:51:48.021Z,13.85
2017-05-15T22:54:16.760Z,13.82
2017-05-15T22:56:47.793Z,13.80
2017-05-15T22:59:15.563Z,13.78
2017-05-15T23:01:43.102Z,13.76
2017-05-15T23:04:11.961Z,13.73
2017-05-15T23:06:41.176Z,13.71
2017-05-15T23:09:09.101Z,13.68
2017-05-15T23:11:36.611Z,13.65
2017-05-15T23:14:04.092Z,13.60
2017-05-15T23:16:31.785Z,13.57
2017-05-15T23:18:59.359Z,13.56
2017-05-15T23:21:27.287Z,13.53
2017-05-15T23:26:46.972Z,13.47
2017-05-15T23:29:14.766Z,13.44
2017-05-15T23:31:51.159Z,13.40
2017-05-15T23:34:19.657Z,13.39
2017-05-15T23:36:49.887Z,13.35
2017-05-15T23:39:17.544Z,13.33
2017-05-15T23:41:45.289Z,13.29
2017-05-15T23:44:12.977Z,13.27
2017-05-15T23:46:40.680Z,13.23
2017-05-15T23:51:43.951Z,13.22
2017-05-15T23:54:20.373Z,13.20
2017-05-15T23:56:47.993Z,13.17
